Terminal Aerodrome Forecast
Issued by NWS Paducah, KY

Home | Current Version | Previous Version | Graphics & Text | Print | Product List | Glossary On
Versions: 1 2 3 4 5 6 7 8 9 10 11 12 13 14 15 16 17 18 19 20 21 22 23 24 25 26 27 28 29
883
FTUS43 KPAH 181913 AAA
TAFPAH
TAF AMD
KPAH 181913Z 1819/1918 22015G32KT P6SM VCTS SCT025CB BKN060
     FM181945 VRB20G40KT 1SM TSRA BR SCT018CB BKN025
     FM182100 32022G36KT P6SM BKN030
     FM190200 32017G27KT P6SM SCT060
     FM190600 32012KT P6SM SKC
     FM191300 33008KT P6SM SKC=

USA.gov is the U.S. government's official web portal to all federal, state and local government web resources and services.